Peacham, Vermont
Current Conditions -  °F | °C
As of 7:15 PM on Tuesday 25 Nov 2014 (Local Time) from KCDA Reporting Station
Scattered Clouds Scattered Clouds  
Wind Chill: 35°   Ceiling: Unl
Heat Index: 39°   Visibility: 10mi
Dew Point: 22°   Wind: 5mph
Humidity: 50%   Direction: 150°SSE
Pressure: 29.96"   Gusts: NA
Location:  44.33°N, 72.17°W
Report Text: KCDA 260015Z AUTO 15004KT 10SM SCT060 04/M06 A2996 RMK AO2 T00381057
Loading
Personal Weather Stations






























Interactive Weather Map New forecast layout! Learn more

10-Day Weather Forecast

Advertisements
Track Severe Weather on mobile